sensor_id;sensor_type;location;lat;lon;timestamp;pressure;altitude;pressure_sealevel;temperature;humidity
51781;BME280;37844;57.126;24.288;2023-03-26T00:02:06;99697.16;;;7.89;100.00
51781;BME280;37844;57.126;24.288;2023-03-26T00:04:50;99690.28;;;7.83;100.00
51781;BME280;37844;57.126;24.288;2023-03-26T00:07:35;99699.69;;;7.81;100.00
51781;BME280;37844;57.126;24.288;2023-03-26T00:10:19;99697.94;;;7.80;100.00
51781;BME280;37844;57.126;24.288;2023-03-26T00:13:03;99698.00;;;7.90;100.00
51781;BME280;37844;57.126;24.288;2023-03-26T00:15:48;99699.72;;;7.86;100.00
51781;BME280;37844;57.126;24.288;2023-03-26T00:18:32;99701.38;;;7.82;100.00
51781;BME280;37844;57.126;24.288;2023-03-26T00:21:19;99703.09;;;7.79;100.00
51781;BME280;37844;57.126;24.288;2023-03-26T00:24:04;99698.00;;;7.83;100.00
51781;BME280;37844;57.126;24.288;2023-03-26T00:26:49;99691.94;;;7.74;100.00
51781;BME280;37844;57.126;24.288;2023-03-26T00:29:35;99688.47;;;7.70;100.00
51781;BME280;37844;57.126;24.288;2023-03-26T00:32:19;99691.06;;;7.73;100.00
51781;BME280;37844;57.126;24.288;2023-03-26T00:35:03;99693.59;;;7.70;100.00
51781;BME280;37844;57.126;24.288;2023-03-26T00:37:48;99697.06;;;7.74;100.00
51781;BME280;37844;57.126;24.288;2023-03-26T00:40:34;99693.69;;;7.82;100.00
51781;BME280;37844;57.126;24.288;2023-03-26T00:43:20;99698.00;;;7.86;100.00
51781;BME280;37844;57.126;24.288;2023-03-26T00:46:04;99694.53;;;7.83;100.00
51781;BME280;37844;57.126;24.288;2023-03-26T00:48:49;99700.50;;;7.77;100.00
51781;BME280;37844;57.126;24.288;2023-03-26T00:51:33;99696.19;;;7.72;100.00
51781;BME280;37844;57.126;24.288;2023-03-26T00:54:17;99697.84;;;7.68;100.00
51781;BME280;37844;57.126;24.288;2023-03-26T00:57:02;99691.81;;;7.61;100.00
51781;BME280;37844;57.126;24.288;2023-03-26T00:59:49;99695.25;;;7.60;100.00
51781;BME280;37844;57.126;24.288;2023-03-26T01:02:33;99696.06;;;7.56;100.00
51781;BME280;37844;57.126;24.288;2023-03-26T01:11:05;99691.75;;;7.54;100.00
51781;BME280;37844;57.126;24.288;2023-03-26T01:13:51;99690.06;;;7.53;100.00
51781;BME280;37844;57.126;24.288;2023-03-26T01:16:41;99689.22;;;7.52;100.00
51781;BME280;37844;57.126;24.288;2023-03-26T01:19:39;99684.94;;;7.56;100.00
51781;BME280;37844;57.126;24.288;2023-03-26T01:22:27;99690.91;;;7.50;100.00
51781;BME280;37844;57.126;24.288;2023-03-26T01:25:11;99696.84;;;7.48;100.00
51781;BME280;37844;57.126;24.288;2023-03-26T01:27:55;99698.56;;;7.49;100.00
51781;BME280;37844;57.126;24.288;2023-03-26T01:30:41;99686.53;;;7.38;100.00
51781;BME280;37844;57.126;24.288;2023-03-26T01:33:44;99688.25;;;7.41;100.00
51781;BME280;37844;57.126;24.288;2023-03-26T01:36:38;99690.84;;;7.44;100.00
51781;BME280;37844;57.126;24.288;2023-03-26T01:39:28;99686.66;;;7.52;100.00
51781;BME280;37844;57.126;24.288;2023-03-26T01:42:20;99685.78;;;7.50;100.00
51781;BME280;37844;57.126;24.288;2023-03-26T01:45:10;99684.06;;;7.54;100.00
51781;BME280;37844;57.126;24.288;2023-03-26T01:47:56;99680.63;;;7.50;100.00
51781;BME280;37844;57.126;24.288;2023-03-26T01:50:40;99673.75;;;7.43;100.00
51781;BME280;37844;57.126;24.288;2023-03-26T01:53:23;99674.53;;;7.37;100.00
51781;BME280;37844;57.126;24.288;2023-03-26T02:02:20;99672.06;;;7.48;100.00
51781;BME280;37844;57.126;24.288;2023-03-26T02:05:20;99669.34;;;7.33;100.00
51781;BME280;37844;57.126;24.288;2023-03-26T02:08:22;99668.56;;;7.38;100.00
51781;BME280;37844;57.126;24.288;2023-03-26T02:11:11;99666.00;;;7.40;100.00
51781;BME280;37844;57.126;24.288;2023-03-26T02:13:56;99671.16;;;7.41;100.00
51781;BME280;37844;57.126;24.288;2023-03-26T02:16:40;99666.88;;;7.42;100.00
51781;BME280;37844;57.126;24.288;2023-03-26T02:19:29;99667.78;;;7.47;100.00
51781;BME280;37844;57.126;24.288;2023-03-26T02:22:13;99667.78;;;7.46;100.00
51781;BME280;37844;57.126;24.288;2023-03-26T02:24:58;99663.53;;;7.48;100.00
51781;BME280;37844;57.126;24.288;2023-03-26T02:27:42;99661.81;;;7.48;100.00
51781;BME280;37844;57.126;24.288;2023-03-26T02:30:26;99666.09;;;7.48;100.00
51781;BME280;37844;57.126;24.288;2023-03-26T02:33:12;99660.91;;;7.44;100.00
51781;BME280;37844;57.126;24.288;2023-03-26T02:35:58;99656.63;;;7.40;100.00
51781;BME280;37844;57.126;24.288;2023-03-26T02:38:44;99666.88;;;7.39;100.00
51781;BME280;37844;57.126;24.288;2023-03-26T02:41:28;99658.28;;;7.37;100.00
51781;BME280;37844;57.126;24.288;2023-03-26T02:44:12;99663.44;;;7.38;100.00
51781;BME280;37844;57.126;24.288;2023-03-26T02:46:57;99662.56;;;7.33;100.00
51781;BME280;37844;57.126;24.288;2023-03-26T02:49:41;99654.84;;;7.35;100.00
51781;BME280;37844;57.126;24.288;2023-03-26T02:52:25;99661.66;;;7.33;100.00
51781;BME280;37844;57.126;24.288;2023-03-26T02:55:09;99659.91;;;7.26;100.00
51781;BME280;37844;57.126;24.288;2023-03-26T02:57:53;99668.47;;;7.31;100.00
51781;BME280;37844;57.126;24.288;2023-03-26T03:00:37;99665.88;;;7.25;100.00
51781;BME280;37844;57.126;24.288;2023-03-26T03:03:27;99667.59;;;7.24;100.00
51781;BME280;37844;57.126;24.288;2023-03-26T03:06:11;99665.88;;;7.25;100.00
51781;BME280;37844;57.126;24.288;2023-03-26T03:08:55;99666.66;;;7.16;100.00
51781;BME280;37844;57.126;24.288;2023-03-26T03:11:39;99662.41;;;7.21;100.00
51781;BME280;37844;57.126;24.288;2023-03-26T03:14:23;99659.91;;;7.26;100.00
51781;BME280;37844;57.126;24.288;2023-03-26T03:17:07;99658.25;;;7.32;100.00
51781;BME280;37844;57.126;24.288;2023-03-26T03:19:51;99662.56;;;7.36;100.00
51781;BME280;37844;57.126;24.288;2023-03-26T03:22:35;99662.50;;;7.30;100.00
51781;BME280;37844;57.126;24.288;2023-03-26T03:25:19;99664.16;;;7.22;100.00
51781;BME280;37844;57.126;24.288;2023-03-26T03:28:04;99667.56;;;7.19;100.00
51781;BME280;37844;57.126;24.288;2023-03-26T03:30:49;99659.00;;;7.17;100.00
51781;BME280;37844;57.126;24.288;2023-03-26T03:33:35;99672.69;;;7.19;100.00
51781;BME280;37844;57.126;24.288;2023-03-26T03:36:20;99659.88;;;7.19;100.00
51781;BME280;37844;57.126;24.288;2023-03-26T03:39:10;99665.84;;;7.20;100.00
51781;BME280;37844;57.126;24.288;2023-03-26T03:41:54;99662.41;;;7.21;100.00
51781;BME280;37844;57.126;24.288;2023-03-26T03:44:38;99668.38;;;7.18;100.00
51781;BME280;37844;57.126;24.288;2023-03-26T03:47:22;99657.38;;;7.27;100.00
51781;BME280;37844;57.126;24.288;2023-03-26T03:50:06;99652.25;;;7.29;100.00
51781;BME280;37844;57.126;24.288;2023-03-26T03:52:50;99656.53;;;7.33;100.00
51781;BME280;37844;57.126;24.288;2023-03-26T03:55:34;99658.25;;;7.29;100.00
51781;BME280;37844;57.126;24.288;2023-03-26T03:58:21;99652.28;;;7.32;100.00
51781;BME280;37844;57.126;24.288;2023-03-26T04:01:06;99656.50;;;7.25;100.00
51781;BME280;37844;57.126;24.288;2023-03-26T04:03:50;99649.66;;;7.26;100.00
51781;BME280;37844;57.126;24.288;2023-03-26T04:06:33;99646.25;;;7.28;100.00
51781;BME280;37844;57.126;24.288;2023-03-26T04:09:17;99647.13;;;7.30;100.00
51781;BME280;37844;57.126;24.288;2023-03-26T04:12:01;99651.34;;;7.25;100.00
51781;BME280;37844;57.126;24.288;2023-03-26T04:14:45;99645.34;;;7.23;100.00
51781;BME280;37844;57.126;24.288;2023-03-26T04:17:29;99644.56;;;7.29;100.00
51781;BME280;37844;57.126;24.288;2023-03-26T04:20:13;99643.66;;;7.25;100.00
51781;BME280;37844;57.126;24.288;2023-03-26T04:22:58;99644.56;;;7.29;100.00
51781;BME280;37844;57.126;24.288;2023-03-26T04:25:52;99656.56;;;7.31;100.00
51781;BME280;37844;57.126;24.288;2023-03-26T04:28:43;99654.81;;;7.30;100.00
51781;BME280;37844;57.126;24.288;2023-03-26T04:31:28;99654.78;;;7.27;100.00
51781;BME280;37844;57.126;24.288;2023-03-26T04:34:20;99654.00;;;7.31;100.00
51781;BME280;37844;57.126;24.288;2023-03-26T04:37:07;99654.00;;;7.31;100.00
51781;BME280;37844;57.126;24.288;2023-03-26T04:39:52;99644.59;;;7.33;100.00
51781;BME280;37844;57.126;24.288;2023-03-26T04:42:37;99649.78;;;7.39;100.00
51781;BME280;37844;57.126;24.288;2023-03-26T04:45:24;99649.75;;;7.36;100.00
51781;BME280;37844;57.126;24.288;2023-03-26T04:48:08;99649.75;;;7.36;100.00
51781;BME280;37844;57.126;24.288;2023-03-26T04:50:56;99654.00;;;7.34;100.00
51781;BME280;37844;57.126;24.288;2023-03-26T04:53:41;99653.19;;;7.40;100.00
51781;BME280;37844;57.126;24.288;2023-03-26T04:59:15;99650.66;;;7.41;100.00
51781;BME280;37844;57.126;24.288;2023-03-26T05:02:00;99639.56;;;7.44;100.00
51781;BME280;37844;57.126;24.288;2023-03-26T05:04:44;99637.84;;;7.44;100.00
51781;BME280;37844;57.126;24.288;2023-03-26T05:07:28;99646.41;;;7.50;100.00
51781;BME280;37844;57.126;24.288;2023-03-26T05:10:13;99633.66;;;7.56;100.00
51781;BME280;37844;57.126;24.288;2023-03-26T05:12:58;99643.03;;;7.51;100.00
51781;BME280;37844;57.126;24.288;2023-03-26T05:15:42;99598.47;;;7.38;100.00
51781;BME280;37844;57.126;24.288;2023-03-26T05:18:26;99636.31;;;7.68;100.00
51781;BME280;37844;57.126;24.288;2023-03-26T05:21:09;99640.63;;;7.72;100.00
51781;BME280;37844;57.126;24.288;2023-03-26T05:23:53;99633.78;;;7.74;100.00
51781;BME280;37844;57.126;24.288;2023-03-26T05:26:37;99630.41;;;7.78;100.00
51781;BME280;37844;57.126;24.288;2023-03-26T05:29:22;99631.25;;;7.80;100.00
51781;BME280;37844;57.126;24.288;2023-03-26T05:32:07;99632.97;;;7.83;100.00
51781;BME280;37844;57.126;24.288;2023-03-26T05:34:51;99631.28;;;7.86;100.00
51781;BME280;37844;57.126;24.288;2023-03-26T05:37:36;99634.75;;;7.90;100.00
51781;BME280;37844;57.126;24.288;2023-03-26T05:40:22;99629.59;;;7.89;100.00
51781;BME280;37844;57.126;24.288;2023-03-26T05:43:06;99630.44;;;7.89;100.00
51781;BME280;37844;57.126;24.288;2023-03-26T05:45:50;99633.03;;;7.91;100.00
51781;BME280;37844;57.126;24.288;2023-03-26T05:48:35;99633.03;;;7.89;100.00
51781;BME280;37844;57.126;24.288;2023-03-26T05:51:20;99631.28;;;7.86;100.00
51781;BME280;37844;57.126;24.288;2023-03-26T05:54:06;99635.59;;;7.89;100.00
51781;BME280;37844;57.126;24.288;2023-03-26T05:56:50;99639.84;;;7.84;100.00
51781;BME280;37844;57.126;24.288;2023-03-26T05:59:34;99637.22;;;7.76;100.00
51781;BME280;37844;57.126;24.288;2023-03-26T06:02:19;99647.47;;;7.78;100.00
51781;BME280;37844;57.126;24.288;2023-03-26T06:05:03;99644.03;;;7.76;100.00
51781;BME280;37844;57.126;24.288;2023-03-26T06:07:47;99640.63;;;7.74;100.00
51781;BME280;37844;57.126;24.288;2023-03-26T06:10:31;99644.06;;;7.77;100.00
51781;BME280;37844;57.126;24.288;2023-03-26T06:13:15;99636.34;;;7.76;100.00
51781;BME280;37844;57.126;24.288;2023-03-26T06:15:59;99640.59;;;7.68;100.00
51781;BME280;37844;57.126;24.288;2023-03-26T06:18:43;99639.75;;;7.73;100.00
51781;BME280;37844;57.126;24.288;2023-03-26T06:21:27;99643.22;;;7.78;100.00
51781;BME280;37844;57.126;24.288;2023-03-26T06:24:11;99649.19;;;7.77;100.00
51781;BME280;37844;57.126;24.288;2023-03-26T06:26:55;99639.84;;;7.85;100.00
51781;BME280;37844;57.126;24.288;2023-03-26T06:29:39;99641.56;;;7.90;100.00
51781;BME280;37844;57.126;24.288;2023-03-26T06:32:23;99639.88;;;7.89;100.00
51781;BME280;37844;57.126;24.288;2023-03-26T06:35:07;99641.56;;;7.90;100.00
51781;BME280;37844;57.126;24.288;2023-03-26T06:37:58;99647.56;;;7.92;100.00
51781;BME280;37844;57.126;24.288;2023-03-26T06:40:42;99639.03;;;7.93;100.00
51781;BME280;37844;57.126;24.288;2023-03-26T06:43:26;99644.19;;;7.97;100.00
51781;BME280;37844;57.126;24.288;2023-03-26T06:46:10;99639.06;;;7.97;100.00
51781;BME280;37844;57.126;24.288;2023-03-26T06:48:54;99635.63;;;7.95;100.00
51781;BME280;37844;57.126;24.288;2023-03-26T06:51:38;99638.19;;;7.97;100.00
51781;BME280;37844;57.126;24.288;2023-03-26T06:54:23;99636.50;;;7.99;100.00
51781;BME280;37844;57.126;24.288;2023-03-26T06:57:07;99641.66;;;8.06;100.00
51781;BME280;37844;57.126;24.288;2023-03-26T06:59:51;99641.69;;;8.11;100.00
51781;BME280;37844;57.126;24.288;2023-03-26T07:02:35;99633.97;;;8.06;100.00
51781;BME280;37844;57.126;24.288;2023-03-26T07:05:19;99631.44;;;8.10;100.00
51781;BME280;37844;57.126;24.288;2023-03-26T07:08:03;99636.53;;;8.06;100.00
51781;BME280;37844;57.126;24.288;2023-03-26T07:10:47;99641.69;;;8.08;100.00
51781;BME280;37844;57.126;24.288;2023-03-26T07:13:31;99645.09;;;8.02;100.00
51781;BME280;37844;57.126;24.288;2023-03-26T07:16:15;99642.47;;;7.96;100.00
51781;BME280;37844;57.126;24.288;2023-03-26T07:18:59;99647.66;;;8.07;100.00
51781;BME280;37844;57.126;24.288;2023-03-26T07:21:43;99649.34;;;8.02;100.00
51781;BME280;37844;57.126;24.288;2023-03-26T07:24:28;99645.91;;;8.01;100.00
51781;BME280;37844;57.126;24.288;2023-03-26T07:27:23;99641.66;;;8.05;100.00
51781;BME280;37844;57.126;24.288;2023-03-26T07:30:11;99645.09;;;8.05;100.00
51781;BME280;37844;57.126;24.288;2023-03-26T07:35:49;99641.69;;;8.10;100.00
51781;BME280;37844;57.126;24.288;2023-03-26T07:38:40;99648.56;;;8.12;100.00
51781;BME280;37844;57.126;24.288;2023-03-26T07:41:37;99647.72;;;8.21;100.00
51781;BME280;37844;57.126;24.288;2023-03-26T07:47:31;99652.06;;;8.33;100.00
51781;BME280;37844;57.126;24.288;2023-03-26T07:50:16;99652.09;;;8.36;100.00
51781;BME280;37844;57.126;24.288;2023-03-26T07:53:00;99654.63;;;8.34;100.00
51781;BME280;37844;57.126;24.288;2023-03-26T08:01:41;99652.94;;;8.36;100.00
51781;BME280;37844;57.126;24.288;2023-03-26T08:13:08;99657.31;;;8.54;100.00
51781;BME280;37844;57.126;24.288;2023-03-26T08:15:59;99648.69;;;8.40;100.00
51781;BME280;37844;57.126;24.288;2023-03-26T08:18:55;99658.13;;;8.44;100.00
51781;BME280;37844;57.126;24.288;2023-03-26T08:21:43;99637.59;;;8.48;100.00
51781;BME280;37844;57.126;24.288;2023-03-26T08:30:23;99647.94;;;8.70;100.00
51781;BME280;37844;57.126;24.288;2023-03-26T08:33:13;99641.13;;;8.74;100.00
51781;BME280;37844;57.126;24.288;2023-03-26T08:35:59;99642.88;;;8.90;100.00
51781;BME280;37844;57.126;24.288;2023-03-26T08:38:43;99645.44;;;9.08;100.00
51781;BME280;37844;57.126;24.288;2023-03-26T08:41:52;99641.19;;;9.20;100.00
51781;BME280;37844;57.126;24.288;2023-03-26T08:50:49;99636.88;;;9.20;100.00
51781;BME280;37844;57.126;24.288;2023-03-26T09:08:25;99619.69;;;9.90;100.00
51781;BME280;37844;57.126;24.288;2023-03-26T09:25:47;99601.53;;;10.36;100.00
51781;BME280;37844;57.126;24.288;2023-03-26T09:40:33;99597.28;;;10.30;100.00
51781;BME280;37844;57.126;24.288;2023-03-26T09:46:59;99598.06;;;10.38;100.00
51781;BME280;37844;57.126;24.288;2023-03-26T09:52:36;99602.41;;;10.23;100.00
51781;BME280;37844;57.126;24.288;2023-03-26T10:01:30;99611.16;;;9.42;100.00
51781;BME280;37844;57.126;24.288;2023-03-26T10:10:17;99609.44;;;9.04;100.00
51781;BME280;37844;57.126;24.288;2023-03-26T10:27:52;99600.78;;;9.98;100.00
51781;BME280;37844;57.126;24.288;2023-03-26T10:33:51;99594.75;;;10.07;100.00
51781;BME280;37844;57.126;24.288;2023-03-26T11:08:56;99577.13;;;10.97;100.00
51781;BME280;37844;57.126;24.288;2023-03-26T11:12:05;99581.47;;;10.86;100.00
51781;BME280;37844;57.126;24.288;2023-03-26T11:15:16;99586.78;;;10.64;100.00
51781;BME280;37844;57.126;24.288;2023-03-26T11:20:45;99583.59;;;10.05;100.00
51781;BME280;37844;57.126;24.288;2023-03-26T11:23:35;99590.53;;;9.88;100.00
51781;BME280;37844;57.126;24.288;2023-03-26T11:26:22;99593.97;;;9.85;100.00
51781;BME280;37844;57.126;24.288;2023-03-26T11:34:59;99593.19;;;9.16;100.00
51781;BME280;37844;57.126;24.288;2023-03-26T11:37:52;99595.78;;;9.19;100.00
51781;BME280;37844;57.126;24.288;2023-03-26T11:40:38;99594.03;;;9.25;100.00
51781;BME280;37844;57.126;24.288;2023-03-26T11:43:30;99585.47;;;9.45;100.00
51781;BME280;37844;57.126;24.288;2023-03-26T11:46:16;99588.03;;;9.52;100.00
51781;BME280;37844;57.126;24.288;2023-03-26T11:49:06;99582.84;;;9.74;100.00
51781;BME280;37844;57.126;24.288;2023-03-26T11:51:54;99589.69;;;9.81;100.00
51781;BME280;37844;57.126;24.288;2023-03-26T11:54:37;99579.38;;;9.84;100.00
51781;BME280;37844;57.126;24.288;2023-03-26T11:57:23;99577.59;;;10.05;100.00
51781;BME280;37844;57.126;24.288;2023-03-26T12:00:18;99573.19;;;10.27;100.00
51781;BME280;37844;57.126;24.288;2023-03-26T12:03:04;99572.22;;;10.58;100.00
51781;BME280;37844;57.126;24.288;2023-03-26T12:05:58;99566.78;;;10.98;100.00
51781;BME280;37844;57.126;24.288;2023-03-26T12:08:42;99562.31;;;11.20;100.00
51781;BME280;37844;57.126;24.288;2023-03-26T12:11:27;99566.66;;;11.12;100.00
51781;BME280;37844;57.126;24.288;2023-03-26T12:14:18;99561.50;;;11.15;100.00
51781;BME280;37844;57.126;24.288;2023-03-26T12:17:05;99562.38;;;11.11;100.00
51781;BME280;37844;57.126;24.288;2023-03-26T12:19:50;99551.06;;;11.26;100.00
51781;BME280;37844;57.126;24.288;2023-03-26T12:22:38;99553.53;;;11.41;100.00
51781;BME280;37844;57.126;24.288;2023-03-26T12:25:28;99554.28;;;11.51;100.00
51781;BME280;37844;57.126;24.288;2023-03-26T12:31:00;99551.66;;;11.54;100.00
51781;BME280;37844;57.126;24.288;2023-03-26T12:36:55;99534.25;;;11.73;100.00
51781;BME280;37844;57.126;24.288;2023-03-26T12:39:40;99542.19;;;11.55;100.00
51781;BME280;37844;57.126;24.288;2023-03-26T12:42:26;99540.72;;;11.29;100.00
51781;BME280;37844;57.126;24.288;2023-03-26T12:45:12;99546.81;;;11.23;100.00
51781;BME280;37844;57.126;24.288;2023-03-26T12:47:56;99540.91;;;11.09;100.00
51781;BME280;37844;57.126;24.288;2023-03-26T12:53:40;99536.59;;;11.11;100.00
51781;BME280;37844;57.126;24.288;2023-03-26T12:56:42;99532.25;;;11.16;100.00
51781;BME280;37844;57.126;24.288;2023-03-26T13:22:38;99516.81;;;11.10;100.00
51781;BME280;37844;57.126;24.288;2023-03-26T13:25:27;99517.69;;;11.11;100.00
51781;BME280;37844;57.126;24.288;2023-03-26T13:31:03;99522.84;;;11.08;100.00
51781;BME280;37844;57.126;24.288;2023-03-26T13:43:11;99529.72;;;11.12;100.00
51781;BME280;37844;57.126;24.288;2023-03-26T13:54:48;99522.94;;;11.00;100.00
51781;BME280;37844;57.126;24.288;2023-03-26T13:57:34;99514.38;;;10.96;100.00
51781;BME280;37844;57.126;24.288;2023-03-26T14:00:23;99513.66;;;10.80;100.00
51781;BME280;37844;57.126;24.288;2023-03-26T14:03:45;99518.84;;;10.74;100.00
51781;BME280;37844;57.126;24.288;2023-03-26T14:06:34;99523.13;;;10.74;100.00
51781;BME280;37844;57.126;24.288;2023-03-26T14:10:26;99515.38;;;10.78;100.00
51781;BME280;37844;57.126;24.288;2023-03-26T14:12:43;99519.72;;;10.75;100.00
51781;BME280;37844;57.126;24.288;2023-03-26T14:15:34;99522.44;;;10.50;100.00
51781;BME280;37844;57.126;24.288;2023-03-26T14:32:45;99570.88;;;9.34;100.00
51781;BME280;37844;57.126;24.288;2023-03-26T14:35:41;99578.63;;;9.27;100.00
51781;BME280;37844;57.126;24.288;2023-03-26T14:47:36;99573.47;;;9.04;100.00
51781;BME280;37844;57.126;24.288;2023-03-26T14:53:32;99556.34;;;8.98;100.00
51781;BME280;37844;57.126;24.288;2023-03-26T14:59:43;99545.19;;;9.13;100.00
51781;BME280;37844;57.126;24.288;2023-03-26T15:46:47;99533.19;;;8.75;100.00
51781;BME280;37844;57.126;24.288;2023-03-26T15:49:36;99534.06;;;8.71;100.00
51781;BME280;37844;57.126;24.288;2023-03-26T15:58:12;99535.75;;;8.63;100.00
51781;BME280;37844;57.126;24.288;2023-03-26T16:09:54;99540.84;;;8.44;100.00
51781;BME280;37844;57.126;24.288;2023-03-26T16:15:30;99542.44;;;8.13;100.00
51781;BME280;37844;57.126;24.288;2023-03-26T16:18:15;99547.59;;;8.12;100.00
51781;BME280;37844;57.126;24.288;2023-03-26T16:33:10;99565.41;;;7.79;100.00
51781;BME280;37844;57.126;24.288;2023-03-26T16:36:00;99570.53;;;7.79;100.00
51781;BME280;37844;57.126;24.288;2023-03-26T16:38:46;99579.91;;;7.76;100.00
51781;BME280;37844;57.126;24.288;2023-03-26T16:47:21;99573.06;;;7.73;100.00
51781;BME280;37844;57.126;24.288;2023-03-26T16:50:13;99582.47;;;7.70;100.00
51781;BME280;37844;57.126;24.288;2023-03-26T16:56:01;99583.38;;;7.82;100.00
51781;BME280;37844;57.126;24.288;2023-03-26T17:01:48;99589.41;;;7.91;100.00
51781;BME280;37844;57.126;24.288;2023-03-26T17:04:36;99581.72;;;7.92;100.00
51781;BME280;37844;57.126;24.288;2023-03-26T17:07:28;99581.66;;;7.77;100.00
51781;BME280;37844;57.126;24.288;2023-03-26T17:13:10;99579.00;;;7.64;100.00
51781;BME280;37844;57.126;24.288;2023-03-26T17:19:09;99585.00;;;7.68;100.00
51781;BME280;37844;57.126;24.288;2023-03-26T17:21:59;99578.16;;;7.65;100.00
51781;BME280;37844;57.126;24.288;2023-03-26T17:27:49;99586.72;;;7.68;100.00
51781;BME280;37844;57.126;24.288;2023-03-26T17:30:43;99585.81;;;7.59;100.00
51781;BME280;37844;57.126;24.288;2023-03-26T17:33:32;99580.66;;;7.53;100.00
51781;BME280;37844;57.126;24.288;2023-03-26T17:39:47;99575.53;;;7.56;100.00
51781;BME280;37844;57.126;24.288;2023-03-26T17:45:02;99573.81;;;7.51;100.00
51781;BME280;37844;57.126;24.288;2023-03-26T17:48:13;99572.94;;;7.50;100.00
51781;BME280;37844;57.126;24.288;2023-03-26T17:50:58;99574.59;;;7.43;100.00
51781;BME280;37844;57.126;24.288;2023-03-26T17:53:44;99575.47;;;7.46;100.00
51781;BME280;37844;57.126;24.288;2023-03-26T17:56:29;99580.59;;;7.44;100.00
51781;BME280;37844;57.126;24.288;2023-03-26T17:59:17;99591.72;;;7.49;100.00
51781;BME280;37844;57.126;24.288;2023-03-26T18:02:10;99590.06;;;7.59;100.00
51781;BME280;37844;57.126;24.288;2023-03-26T18:04:54;99585.75;;;7.50;100.00
51781;BME280;37844;57.126;24.288;2023-03-26T18:08:40;99598.53;;;7.44;100.00
51781;BME280;37844;57.126;24.288;2023-03-26T18:10:58;99594.28;;;7.49;100.00
51781;BME280;37844;57.126;24.288;2023-03-26T18:17:05;99601.91;;;7.38;100.00
51781;BME280;37844;57.126;24.288;2023-03-26T18:19:47;99601.91;;;7.37;100.00
51781;BME280;37844;57.126;24.288;2023-03-26T18:22:31;99587.38;;;7.39;100.00
51781;BME280;37844;57.126;24.288;2023-03-26T18:25:26;99602.00;;;7.48;100.00
51781;BME280;37844;57.126;24.288;2023-03-26T18:28:11;99590.78;;;7.33;100.00
51781;BME280;37844;57.126;24.288;2023-03-26T18:30:58;99594.13;;;7.25;100.00
51781;BME280;37844;57.126;24.288;2023-03-26T18:33:49;99602.59;;;7.14;100.00
51781;BME280;37844;57.126;24.288;2023-03-26T18:36:36;99593.88;;;6.97;100.00
51781;BME280;37844;57.126;24.288;2023-03-26T18:39:21;99586.13;;;6.89;100.00
51781;BME280;37844;57.126;24.288;2023-03-26T18:42:05;99581.75;;;6.77;100.00
51781;BME280;37844;57.126;24.288;2023-03-26T18:44:49;99578.34;;;6.80;100.00
51781;BME280;37844;57.126;24.288;2023-03-26T18:47:34;99573.25;;;6.80;100.00
51781;BME280;37844;57.126;24.288;2023-03-26T18:50:23;99579.22;;;6.80;100.00
51781;BME280;37844;57.126;24.288;2023-03-26T18:53:19;99579.28;;;6.87;100.00
51781;BME280;37844;57.126;24.288;2023-03-26T18:56:17;99579.06;;;6.64;100.00
51781;BME280;37844;57.126;24.288;2023-03-26T18:59:03;99580.81;;;6.68;100.00
51781;BME280;37844;57.126;24.288;2023-03-26T19:01:48;99578.41;;;6.85;100.00
51781;BME280;37844;57.126;24.288;2023-03-26T19:04:33;99584.19;;;6.64;100.00
51781;BME280;37844;57.126;24.288;2023-03-26T19:07:19;99585.03;;;6.64;100.00
51781;BME280;37844;57.126;24.288;2023-03-26T19:10:05;99580.84;;;6.69;100.00
51781;BME280;37844;57.126;24.288;2023-03-26T19:12:54;99575.00;;;6.87;100.00
51781;BME280;37844;57.126;24.288;2023-03-26T19:15:39;99574.22;;;6.93;100.00
51781;BME280;37844;57.126;24.288;2023-03-26T19:18:26;99574.13;;;6.84;100.00
51781;BME280;37844;57.126;24.288;2023-03-26T19:21:11;99579.25;;;6.84;100.00
51781;BME280;37844;57.126;24.288;2023-03-26T19:23:56;99574.94;;;6.78;100.00
51781;BME280;37844;57.126;24.288;2023-03-26T19:26:39;99574.06;;;6.77;100.00
51781;BME280;37844;57.126;24.288;2023-03-26T19:29:25;99573.16;;;6.71;100.00
51781;BME280;37844;57.126;24.288;2023-03-26T19:32:15;99569.72;;;6.69;100.00
51781;BME280;37844;57.126;24.288;2023-03-26T19:35:00;99572.28;;;6.70;100.00
51781;BME280;37844;57.126;24.288;2023-03-26T19:37:48;99580.06;;;6.76;100.00
51781;BME280;37844;57.126;24.288;2023-03-26T19:40:33;99577.63;;;6.95;100.00
51781;BME280;37844;57.126;24.288;2023-03-26T19:43:17;99569.13;;;6.96;100.00
51781;BME280;37844;57.126;24.288;2023-03-26T19:46:01;99566.44;;;6.82;100.00
51781;BME280;37844;57.126;24.288;2023-03-26T19:48:45;99570.59;;;6.69;100.00
51781;BME280;37844;57.126;24.288;2023-03-26T19:51:32;99564.56;;;6.66;100.00
51781;BME280;37844;57.126;24.288;2023-03-26T19:54:17;99501.91;;;6.28;100.00
51781;BME280;37844;57.126;24.288;2023-03-26T19:57:03;99555.13;;;6.58;100.00
51781;BME280;37844;57.126;24.288;2023-03-26T19:59:48;99556.00;;;6.61;100.00
51781;BME280;37844;57.126;24.288;2023-03-26T20:02:32;99557.75;;;6.66;100.00
51781;BME280;37844;57.126;24.288;2023-03-26T20:05:21;99553.47;;;6.67;100.00
51781;BME280;37844;57.126;24.288;2023-03-26T20:08:10;99547.59;;;6.75;100.00
51781;BME280;37844;57.126;24.288;2023-03-26T20:10:55;99544.94;;;6.65;100.00
51781;BME280;37844;57.126;24.288;2023-03-26T20:13:40;99538.72;;;6.43;100.00
51781;BME280;37844;57.126;24.288;2023-03-26T20:16:29;99535.28;;;6.39;100.00
51781;BME280;37844;57.126;24.288;2023-03-26T20:19:14;99538.75;;;6.41;100.00
51781;BME280;37844;57.126;24.288;2023-03-26T20:21:57;99534.50;;;6.43;100.00
51781;BME280;37844;57.126;24.288;2023-03-26T20:24:42;99536.34;;;6.61;100.00